Time;durP1;ratioP1;P1;durP2;ratioP2;P2;SDS_P1;SDS_P2;PMS_P1;PMS_P2;Temp;Humidity;BMP_temperature;BMP_pressure;BME280_temperature;BME280_humidity;BME280_pressure;Samples;Min_cycle;Max_cycle;Signal;HPM_P1;HPM_P2
2021/03/30 00:00:25;;;;;;;2.10;1.05;;;22.40;31.50;;;;;;5091902;28;20405;-62
2021/03/30 00:02:50;;;;;;;1.58;0.90;;;22.50;31.60;;;;;;5091129;28;20410;-64
2021/03/30 00:05:16;;;;;;;1.93;1.10;;;22.50;31.50;;;;;;5091481;28;20410;-62
2021/03/30 00:07:42;;;;;;;2.70;1.20;;;22.50;31.50;;;;;;5091544;28;20418;-65
2021/03/30 00:10:12;;;;;;;1.90;1.30;;;22.50;31.40;;;;;;5091533;28;20402;-65
2021/03/30 00:12:38;;;;;;;2.45;1.10;;;22.60;31.40;;;;;;5090981;28;20386;-66
2021/03/30 00:15:06;;;;;;;2.50;1.20;;;22.60;31.30;;;;;;5090812;28;20409;-65
2021/03/30 00:17:31;;;;;;;2.35;1.10;;;22.60;31.90;;;;;;5090611;28;20805;-66
2021/03/30 00:19:57;;;;;;;2.45;1.10;;;22.60;31.20;;;;;;5091271;28;20485;-59
2021/03/30 00:22:23;;;;;;;1.90;1.00;;;22.60;31.20;;;;;;5091255;28;20473;-66
2021/03/30 00:24:48;;;;;;;1.77;1.05;;;22.60;31.10;;;;;;5091005;28;20390;-63
2021/03/30 00:27:14;;;;;;;1.80;1.03;;;22.60;31.00;;;;;;5091296;28;20878;-65
2021/03/30 00:29:43;;;;;;;1.50;0.82;;;22.60;31.00;;;;;;5091342;28;20473;-63
2021/03/30 00:32:12;;;;;;;2.00;1.00;;;22.60;31.00;;;;;;5091499;28;20439;-64
2021/03/30 00:34:37;;;;;;;2.30;1.00;;;22.60;30.90;;;;;;5091104;28;20429;-64
2021/03/30 00:37:04;;;;;;;2.47;1.10;;;22.60;30.80;;;;;;5091230;28;20421;-64
2021/03/30 00:39:32;;;;;;;2.65;0.90;;;22.60;30.80;;;;;;5091238;28;20390;-63
2021/03/30 00:41:58;;;;;;;1.85;1.05;;;22.60;30.80;;;;;;5091147;28;20468;-65
2021/03/30 00:44:23;;;;;;;2.10;1.10;;;22.70;30.90;;;;;;5089884;28;20508;-65
2021/03/30 00:46:51;;;;;;;2.20;0.97;;;22.70;30.80;;;;;;5090640;28;20922;-65
2021/03/30 00:49:17;;;;;;;1.80;0.90;;;22.70;30.70;;;;;;5091071;28;20557;-63
2021/03/30 00:51:45;;;;;;;1.80;1.10;;;22.70;30.70;;;;;;5091099;28;20902;-63
2021/03/30 00:54:12;;;;;;;1.67;0.90;;;22.70;30.70;;;;;;5090955;28;20386;-65
2021/03/30 00:56:38;;;;;;;1.50;1.00;;;22.70;30.60;;;;;;5090845;28;20392;-64
2021/03/30 00:59:04;;;;;;;1.50;1.10;;;22.70;30.60;;;;;;5091098;28;20386;-63
2021/03/30 01:01:30;;;;;;;1.60;1.00;;;22.60;30.50;;;;;;5091057;28;20463;-66
2021/03/30 01:03:55;;;;;;;1.55;0.95;;;22.70;30.50;;;;;;5090824;28;20455;-66
2021/03/30 01:06:22;;;;;;;1.27;0.90;;;22.70;31.10;;;;;;5090954;28;20383;-66
2021/03/30 01:09:06;;;;;;;1.77;1.00;;;22.70;30.40;;;;;;5090516;28;20390;-64
2021/03/30 01:11:51;;;;;;;2.00;0.90;;;22.70;30.40;;;;;;5089588;28;20386;-66
2021/03/30 01:14:35;;;;;;;1.55;0.98;;;22.70;30.40;;;;;;5090916;28;20755;-66
2021/03/30 01:17:30;;;;;;;1.65;1.00;;;22.70;30.30;;;;;;5090615;28;20381;-66
2021/03/30 01:20:29;;;;;;;1.90;1.00;;;22.70;30.30;;;;;;5090730;28;20374;-65
2021/03/30 01:23:14;;;;;;;2.00;0.95;;;22.70;30.20;;;;;;5090233;28;20445;-66
2021/03/30 01:25:47;;;;;;;1.50;0.98;;;22.70;30.20;;;;;;5090834;28;20861;-64
2021/03/30 01:28:45;;;;;;;1.63;0.90;;;22.70;30.20;;;;;;5091515;28;20425;-65
2021/03/30 01:31:11;;;;;;;2.10;1.00;;;22.70;30.20;;;;;;5094593;28;20436;-66
2021/03/30 01:33:39;;;;;;;1.77;1.02;;;22.70;30.10;;;;;;5094544;28;20408;-64
2021/03/30 01:36:06;;;;;;;1.88;0.90;;;22.70;30.10;;;;;;5094474;28;20389;-63
2021/03/30 01:38:32;;;;;;;1.30;0.90;;;22.70;30.10;;;;;;5094424;28;20410;-65
2021/03/30 01:40:59;;;;;;;1.70;0.90;;;22.70;30.10;;;;;;5093817;28;20756;-64
2021/03/30 01:43:26;;;;;;;1.50;1.00;;;22.70;30.10;;;;;;5094226;28;20424;-65
2021/03/30 01:45:56;;;;;;;1.92;0.90;;;22.60;30.00;;;;;;5094301;28;20873;-64
2021/03/30 01:48:23;;;;;;;1.30;0.80;;;22.70;30.00;;;;;;5093011;28;20422;-64
2021/03/30 01:50:52;;;;;;;1.40;0.80;;;22.70;30.00;;;;;;5093996;28;20382;-64
2021/03/30 01:53:19;;;;;;;1.70;1.00;;;22.70;30.00;;;;;;5094031;28;20881;-66
2021/03/30 01:55:48;;;;;;;1.88;0.90;;;22.70;30.00;;;;;;5092880;28;20390;-64
2021/03/30 01:58:20;;;;;;;1.48;0.80;;;22.70;30.00;;;;;;5094036;28;20870;-65
2021/03/30 02:00:46;;;;;;;1.30;0.80;;;22.70;30.00;;;;;;5093798;28;20385;-65
2021/03/30 02:03:13;;;;;;;2.10;0.90;;;22.70;30.00;;;;;;5093967;28;20493;-64
2021/03/30 02:05:39;;;;;;;1.30;0.70;;;22.70;30.00;;;;;;5094082;28;20868;-65
2021/03/30 02:08:08;;;;;;;1.63;1.00;;;22.70;30.00;;;;;;5093883;28;20457;-65
2021/03/30 02:10:45;;;;;;;1.80;0.80;;;22.70;29.90;;;;;;5093928;28;20378;-64
2021/03/30 02:13:12;;;;;;;1.33;0.98;;;22.70;29.90;;;;;;5093842;28;20724;-65
2021/03/30 02:15:38;;;;;;;1.45;1.00;;;22.70;29.90;;;;;;5093854;28;20428;-65
2021/03/30 02:18:05;;;;;;;2.20;1.00;;;22.70;29.90;;;;;;5093617;28;20407;-65
2021/03/30 02:20:38;;;;;;;1.30;0.80;;;22.70;29.90;;;;;;5098625;28;20384;-63
2021/03/30 02:23:05;;;;;;;1.30;0.80;;;22.70;29.90;;;;;;5113693;28;20412;-63
2021/03/30 02:25:32;;;;;;;1.60;1.00;;;22.70;29.80;;;;;;5114014;28;20392;-63
2021/03/30 02:28:11;;;;;;;1.40;0.90;;;22.70;29.90;;;;;;5113823;28;20380;-65
2021/03/30 02:30:39;;;;;;;1.80;0.90;;;22.70;29.90;;;;;;5113861;28;20388;-64
2021/03/30 02:33:09;;;;;;;2.75;1.00;;;22.70;29.80;;;;;;5113550;28;20436;-65
2021/03/30 02:35:36;;;;;;;1.90;0.90;;;22.70;30.30;;;;;;5113796;28;20868;-64
2021/03/30 02:38:04;;;;;;;1.70;1.10;;;22.70;29.80;;;;;;5113629;28;20373;-63
2021/03/30 02:40:31;;;;;;;1.50;0.82;;;22.70;29.80;;;;;;5112735;28;20872;-64
2021/03/30 02:42:59;;;;;;;1.60;0.95;;;22.70;29.80;;;;;;5113061;28;20410;-64
2021/03/30 02:45:28;;;;;;;1.67;0.90;;;22.70;29.80;;;;;;5113400;27;20782;-65
2021/03/30 02:47:58;;;;;;;1.77;1.10;;;22.70;29.80;;;;;;5113331;28;20384;-65
2021/03/30 02:50:24;;;;;;;1.73;0.98;;;22.60;29.70;;;;;;5113448;28;20933;-65
2021/03/30 02:52:51;;;;;;;1.42;0.80;;;22.60;29.70;;;;;;5113199;28;20376;-64
2021/03/30 02:55:18;;;;;;;1.80;0.90;;;22.70;29.70;;;;;;5113238;28;20384;-65
2021/03/30 02:57:45;;;;;;;1.60;0.90;;;22.60;29.70;;;;;;5113469;28;20440;-64
2021/03/30 03:00:13;;;;;;;1.48;0.90;;;22.60;29.70;;;;;;5113069;28;20951;-68
2021/03/30 03:02:41;;;;;;;1.58;0.88;;;22.60;29.70;;;;;;5113380;28;20387;-64
2021/03/30 03:05:07;;;;;;;1.27;0.80;;;22.60;29.60;;;;;;5112914;28;20388;-66
2021/03/30 03:07:34;;;;;;;1.27;0.80;;;22.60;29.60;;;;;;5113061;28;20410;-64
2021/03/30 03:10:02;;;;;;;1.70;0.80;;;22.60;29.60;;;;;;5111776;28;20388;-64
2021/03/30 03:12:31;;;;;;;1.85;1.00;;;22.60;29.70;;;;;;5112886;28;20408;-65
2021/03/30 03:14:59;;;;;;;2.92;1.10;;;22.60;30.20;;;;;;5112389;28;20871;-65
2021/03/30 03:17:25;;;;;;;3.33;1.00;;;22.60;29.90;;;;;;5113091;28;20417;-65
2021/03/30 03:19:51;;;;;;;2.67;1.05;;;22.60;30.20;;;;;;5109239;28;20428;-63
2021/03/30 03:22:17;;;;;;;3.85;1.10;;;22.50;29.90;;;;;;5108129;28;20406;-65
2021/03/30 03:24:46;;;;;;;2.75;0.90;;;22.40;30.00;;;;;;5112312;28;20416;-65
2021/03/30 03:27:12;;;;;;;4.25;1.10;;;22.50;30.50;;;;;;5098535;28;20467;-65
2021/03/30 03:29:38;;;;;;;4.90;1.13;;;22.50;30.50;;;;;;5096683;28;20396;-60
2021/03/30 03:32:04;;;;;;;8.48;1.60;;;22.60;31.40;;;;;;5097731;28;20821;-62
2021/03/30 03:34:30;;;;;;;4.18;1.00;;;22.70;31.60;;;;;;5112570;28;20750;-58
2021/03/30 03:37:00;;;;;;;5.65;1.10;;;22.70;31.80;;;;;;5111719;28;20388;-62
2021/03/30 03:39:25;;;;;;;4.25;0.90;;;22.70;32.10;;;;;;5112385;28;20438;-62
2021/03/30 03:41:51;;;;;;;3.22;0.90;;;22.70;31.70;;;;;;5111900;28;20861;-58
2021/03/30 03:44:17;;;;;;;2.33;0.97;;;22.70;31.00;;;;;;5111339;28;20416;-63
2021/03/30 03:46:42;;;;;;;3.33;1.00;;;22.70;30.80;;;;;;5111860;28;20388;-62
2021/03/30 03:49:08;;;;;;;3.13;1.23;;;22.70;30.60;;;;;;5111252;28;20396;-65
2021/03/30 03:51:41;;;;;;;4.03;1.10;;;22.70;31.20;;;;;;5111965;28;20404;-61
2021/03/30 03:54:09;;;;;;;7.57;1.10;;;22.80;31.20;;;;;;5111932;28;20432;-57
2021/03/30 03:56:41;;;;;;;5.28;1.40;;;22.80;31.40;;;;;;5112011;28;20782;-57
2021/03/30 03:59:11;;;;;;;3.50;1.17;;;22.70;31.00;;;;;;5111773;28;20449;-59
2021/03/30 04:01:44;;;;;;;5.13;1.02;;;22.80;30.60;;;;;;5111224;28;20416;-57
2021/03/30 04:04:37;;;;;;;3.53;1.00;;;22.70;30.70;;;;;;5111544;28;20436;-58
2021/03/30 04:07:04;;;;;;;3.17;1.10;;;22.70;31.50;;;;;;5109846;28;20387;-64
2021/03/30 04:09:33;;;;;;;4.13;0.90;;;22.70;30.50;;;;;;5112051;28;20380;-61
2021/03/30 04:12:00;;;;;;;6.22;0.90;;;22.70;30.70;;;;;;5112127;28;20389;-61
2021/03/30 04:14:27;;;;;;;5.72;1.25;;;22.70;30.40;;;;;;5110650;28;20906;-58
2021/03/30 04:16:53;;;;;;;9.57;1.67;;;22.70;30.40;;;;;;5111528;28;20479;-57
2021/03/30 04:19:19;;;;;;;5.55;0.95;;;22.60;30.10;;;;;;5110569;28;20467;-58
2021/03/30 04:21:45;;;;;;;5.75;1.20;;;22.60;31.60;;;;;;5111705;28;20388;-57
2021/03/30 04:24:11;;;;;;;5.38;1.25;;;22.60;30.40;;;;;;5111595;28;20438;-57
2021/03/30 04:26:38;;;;;;;4.70;1.20;;;22.60;30.90;;;;;;5111723;28;20379;-57
2021/03/30 04:29:05;;;;;;;3.83;1.37;;;22.60;30.70;;;;;;5111201;28;20388;-57
2021/03/30 04:31:31;;;;;;;3.47;1.00;;;22.60;30.70;;;;;;5111677;28;20384;-57
2021/03/30 04:33:57;;;;;;;3.05;1.00;;;22.60;30.70;;;;;;5111183;28;20403;-57
2021/03/30 04:36:23;;;;;;;4.07;1.23;;;22.60;30.60;;;;;;5111388;28;20380;-57
2021/03/30 04:38:49;;;;;;;4.75;1.10;;;22.60;30.60;;;;;;5111241;28;20884;-57
2021/03/30 04:41:15;;;;;;;3.30;1.07;;;22.60;30.60;;;;;;5111449;28;20392;-56
2021/03/30 04:43:41;;;;;;;4.00;1.23;;;22.60;30.60;;;;;;5111494;28;20412;-58
2021/03/30 04:46:07;;;;;;;5.10;1.77;;;22.60;30.50;;;;;;5111741;28;20884;-57
2021/03/30 04:48:34;;;;;;;3.55;1.48;;;22.60;30.30;;;;;;5111796;28;20380;-58
2021/03/30 04:51:00;;;;;;;4.80;1.70;;;22.60;30.30;;;;;;5110989;28;20414;-57
2021/03/30 04:53:26;;;;;;;4.25;1.60;;;22.60;30.50;;;;;;5111486;28;20748;-57
2021/03/30 04:55:52;;;;;;;5.18;1.80;;;22.60;30.60;;;;;;5111233;28;20868;-58
2021/03/30 04:58:18;;;;;;;3.90;1.80;;;22.60;30.40;;;;;;5111353;28;20396;-57
2021/03/30 05:00:43;;;;;;;4.32;1.80;;;22.60;30.30;;;;;;5111475;28;20384;-58
2021/03/30 05:03:09;;;;;;;4.60;1.70;;;22.60;30.30;;;;;;5111338;28;20495;-57
2021/03/30 05:05:34;;;;;;;5.03;1.98;;;22.60;30.20;;;;;;5115499;28;20390;-58
2021/03/30 05:08:00;;;;;;;4.77;2.20;;;22.60;30.20;;;;;;5115232;28;20374;-57
2021/03/30 05:10:26;;;;;;;3.42;1.58;;;22.60;30.10;;;;;;5115425;28;20392;-59
2021/03/30 05:12:53;;;;;;;5.65;1.80;;;22.60;30.10;;;;;;5115306;28;20371;-57
2021/03/30 05:15:18;;;;;;;4.70;1.80;;;22.50;30.00;;;;;;5115016;28;20430;-57
2021/03/30 05:17:44;;;;;;;3.05;1.33;;;22.60;30.10;;;;;;5115296;28;20799;-57
2021/03/30 05:20:10;;;;;;;3.83;1.70;;;22.50;30.10;;;;;;5115168;28;20391;-57
2021/03/30 05:22:36;;;;;;;5.00;1.65;;;22.60;30.10;;;;;;5114756;28;20450;-57
2021/03/30 05:25:03;;;;;;;3.80;1.73;;;22.50;30.00;;;;;;5114462;28;20834;-57
2021/03/30 05:27:28;;;;;;;3.10;1.60;;;22.50;30.00;;;;;;5115114;28;20376;-57
2021/03/30 05:29:54;;;;;;;3.22;1.52;;;22.50;30.00;;;;;;5114983;28;20724;-57
2021/03/30 05:32:20;;;;;;;3.70;1.70;;;22.50;30.00;;;;;;5114977;28;20741;-57
2021/03/30 05:34:50;;;;;;;4.70;1.60;;;22.60;30.00;;;;;;5113763;28;20388;-58
2021/03/30 05:37:16;;;;;;;5.40;1.70;;;22.60;30.00;;;;;;5114494;28;20429;-57
2021/03/30 05:39:43;;;;;;;3.15;1.35;;;22.60;30.00;;;;;;5114801;28;20380;-57
2021/03/30 05:42:09;;;;;;;2.40;1.30;;;22.60;29.90;;;;;;5114800;28;20404;-58
2021/03/30 05:44:36;;;;;;;2.50;1.30;;;22.60;29.90;;;;;;5114565;28;20443;-57
2021/03/30 05:49:37;;;;;;;4.03;1.50;;;22.50;29.90;;;;;;5114906;28;20403;-57
2021/03/30 05:52:06;;;;;;;2.97;1.20;;;22.50;29.90;;;;;;5114719;28;20387;-58
2021/03/30 05:54:35;;;;;;;2.53;1.30;;;22.60;29.90;;;;;;5114497;28;20377;-58
2021/03/30 05:57:03;;;;;;;3.25;1.30;;;22.50;29.90;;;;;;5114264;28;20433;-57
2021/03/30 05:59:31;;;;;;;2.63;1.23;;;22.50;30.00;;;;;;5114477;28;20441;-57
2021/03/30 06:01:59;;;;;;;2.70;1.30;;;22.60;30.00;;;;;;5114338;28;20387;-56
2021/03/30 06:04:25;;;;;;;2.95;1.40;;;22.60;30.00;;;;;;5114381;27;20469;-56
2021/03/30 06:06:51;;;;;;;2.92;1.30;;;22.60;30.00;;;;;;5112743;28;20384;-57
2021/03/30 06:09:19;;;;;;;2.90;1.30;;;22.60;30.00;;;;;;5114207;28;20396;-57
2021/03/30 06:11:45;;;;;;;2.70;1.23;;;22.60;30.00;;;;;;5114217;28;20870;-57
2021/03/30 06:14:11;;;;;;;2.42;1.10;;;22.60;30.00;;;;;;5113648;28;20392;-58
2021/03/30 06:16:39;;;;;;;2.17;1.17;;;22.60;30.00;;;;;;5112048;28;20391;-57
2021/03/30 06:19:14;;;;;;;1.85;1.02;;;22.60;29.80;;;;;;5113456;28;20829;-57
2021/03/30 06:22:02;;;;;;;2.25;1.20;;;22.60;29.80;;;;;;5113939;28;20469;-58
2021/03/30 06:24:31;;;;;;;2.25;1.02;;;22.60;29.70;;;;;;5113581;28;20427;-57
2021/03/30 06:27:05;;;;;;;3.05;1.25;;;22.60;29.60;;;;;;5113676;28;20384;-57
2021/03/30 06:29:38;;;;;;;1.98;1.10;;;22.60;29.70;;;;;;5113898;28;20384;-58
2021/03/30 06:32:09;;;;;;;2.53;1.20;;;22.60;29.50;;;;;;5113752;27;20373;-57
2021/03/30 06:34:36;;;;;;;2.30;1.05;;;22.70;29.60;;;;;;5113776;27;20422;-59
2021/03/30 06:37:28;;;;;;;2.03;0.93;;;22.60;29.60;;;;;;5113448;28;20377;-57
2021/03/30 06:39:59;;;;;;;1.77;1.05;;;22.70;30.00;;;;;;5113864;28;20381;-57
2021/03/30 06:42:35;;;;;;;2.78;1.17;;;22.70;29.60;;;;;;5112329;28;20891;-57
2021/03/30 06:45:01;;;;;;;2.30;1.05;;;22.70;29.50;;;;;;5113024;28;20408;-57
2021/03/30 06:47:28;;;;;;;2.95;1.10;;;22.70;29.60;;;;;;5113551;28;20848;-58
2021/03/30 06:49:55;;;;;;;2.85;1.00;;;22.80;29.60;;;;;;5113376;27;20384;-57
2021/03/30 06:52:41;;;;;;;1.55;0.90;;;22.80;29.60;;;;;;5113423;28;20407;-57
2021/03/30 06:55:13;;;;;;;2.20;1.10;;;22.80;29.60;;;;;;5112706;28;20806;-57
2021/03/30 06:57:46;;;;;;;2.05;1.00;;;22.80;29.50;;;;;;5113237;28;20380;-57
2021/03/30 07:00:21;;;;;;;1.95;1.20;;;22.90;29.50;;;;;;5113465;28;20376;-57
2021/03/30 07:02:52;;;;;;;2.05;1.10;;;22.90;29.50;;;;;;5113376;28;20384;-57
2021/03/30 07:05:28;;;;;;;1.73;1.00;;;22.90;29.50;;;;;;5112621;28;20397;-57
2021/03/30 07:07:57;;;;;;;2.13;1.10;;;22.90;29.60;;;;;;5112912;27;20376;-57
2021/03/30 07:10:24;;;;;;;1.90;1.00;;;22.90;29.30;;;;;;5112737;28;20554;-57
2021/03/30 07:12:51;;;;;;;1.92;1.00;;;22.90;29.30;;;;;;5112914;28;20399;-57
2021/03/30 07:15:19;;;;;;;2.40;0.90;;;23.00;29.40;;;;;;5112626;28;20412;-58
2021/03/30 07:17:51;;;;;;;2.50;1.30;;;23.00;29.40;;;;;;5112921;28;20412;-57
2021/03/30 07:20:17;;;;;;;1.80;1.13;;;23.00;29.20;;;;;;5112739;28;20465;-57
2021/03/30 07:22:46;;;;;;;1.70;1.00;;;23.10;29.70;;;;;;5112709;28;20401;-57
2021/03/30 07:25:17;;;;;;;1.95;1.10;;;23.10;29.20;;;;;;5111968;28;20896;-57
2021/03/30 07:27:51;;;;;;;2.30;1.27;;;23.10;29.20;;;;;;5112270;28;20373;-58
2021/03/30 07:30:17;;;;;;;2.08;1.08;;;23.20;29.20;;;;;;5112773;28;20385;-57
2021/03/30 07:33:02;;;;;;;2.80;0.95;;;23.10;29.10;;;;;;5112521;28;20416;-57
2021/03/30 07:35:30;;;;;;;2.20;1.00;;;23.20;29.20;;;;;;5112025;28;20385;-58
2021/03/30 07:38:23;;;;;;;1.90;1.00;;;23.20;29.10;;;;;;5112405;28;20376;-57
2021/03/30 07:40:49;;;;;;;1.85;0.95;;;23.20;29.10;;;;;;5112338;28;20401;-56
2021/03/30 07:43:33;;;;;;;2.17;0.80;;;23.30;29.10;;;;;;5111705;28;20411;-57
2021/03/30 07:46:01;;;;;;;2.00;0.93;;;23.30;29.00;;;;;;5112338;28;20376;-57
2021/03/30 07:48:30;;;;;;;2.03;0.88;;;23.30;29.00;;;;;;5112503;28;20384;-58
2021/03/30 07:51:08;;;;;;;1.70;0.93;;;23.40;29.00;;;;;;5111957;28;20763;-57
2021/03/30 07:54:06;;;;;;;1.67;0.90;;;23.40;28.90;;;;;;5112285;28;20412;-58
2021/03/30 07:56:47;;;;;;;1.73;0.98;;;23.40;28.90;;;;;;5112176;28;20373;-60
2021/03/30 07:59:49;;;;;;;1.60;0.80;;;23.50;28.90;;;;;;5111954;28;20796;-58
2021/03/30 08:02:23;;;;;;;1.92;0.95;;;23.50;28.90;;;;;;5111977;28;20453;-57
2021/03/30 08:05:07;;;;;;;2.10;0.93;;;23.60;28.90;;;;;;5111418;28;20427;-58
2021/03/30 08:07:52;;;;;;;2.13;0.80;;;23.60;28.90;;;;;;5112285;28;20380;-57
2021/03/30 08:10:33;;;;;;;1.92;0.95;;;23.60;28.80;;;;;;5111923;28;20377;-58
2021/03/30 08:13:20;;;;;;;1.60;1.00;;;23.60;28.80;;;;;;5111737;28;20433;-57
2021/03/30 08:15:47;;;;;;;1.35;0.80;;;23.60;28.80;;;;;;5111921;28;20389;-57
2021/03/30 08:18:16;;;;;;;1.50;0.80;;;23.70;28.90;;;;;;5111985;28;20744;-58
2021/03/30 08:20:56;;;;;;;1.30;0.73;;;23.70;29.10;;;;;;5111932;28;20794;-57
2021/03/30 08:23:22;;;;;;;1.50;0.80;;;23.70;28.90;;;;;;5111222;28;20888;-57
2021/03/30 08:25:52;;;;;;;2.00;0.80;;;23.70;29.00;;;;;;5111785;28;20380;-58
2021/03/30 08:28:49;;;;;;;1.80;0.90;;;23.80;29.00;;;;;;5111691;28;20380;-57
2021/03/30 08:31:40;;;;;;;1.77;0.88;;;23.80;28.90;;;;;;5111220;28;20469;-58
2021/03/30 08:34:26;;;;;;;1.88;0.90;;;23.80;28.90;;;;;;5108864;28;20405;-59
2021/03/30 08:36:56;;;;;;;1.17;0.80;;;23.80;28.80;;;;;;5110349;28;20396;-58
2021/03/30 08:39:25;;;;;;;1.50;0.90;;;23.80;28.90;;;;;;5110078;28;20825;-57
2021/03/30 08:41:53;;;;;;;1.83;0.90;;;23.80;28.90;;;;;;5111475;28;20925;-57
2021/03/30 08:44:39;;;;;;;1.23;0.70;;;23.90;28.80;;;;;;5111355;28;20572;-57
2021/03/30 08:47:06;;;;;;;3.20;0.90;;;23.90;28.90;;;;;;5111342;28;20440;-57
2021/03/30 08:49:38;;;;;;;2.00;0.85;;;23.90;28.80;;;;;;5111493;28;20388;-57
2021/03/30 08:52:13;;;;;;;1.65;0.90;;;23.90;28.80;;;;;;5111421;28;20404;-57
2021/03/30 08:54:49;;;;;;;1.63;0.80;;;23.90;28.80;;;;;;5111504;28;20423;-57
2021/03/30 08:57:31;;;;;;;1.77;0.85;;;24.00;28.80;;;;;;5110949;28;20379;-58
2021/03/30 08:59:57;;;;;;;1.52;0.80;;;24.00;28.90;;;;;;5111325;28;20752;-57
2021/03/30 09:02:25;;;;;;;1.58;0.70;;;24.00;28.80;;;;;;5111454;28;20380;-57
2021/03/30 09:04:51;;;;;;;2.08;0.80;;;24.10;28.90;;;;;;5111254;28;20423;-58
2021/03/30 09:07:18;;;;;;;1.58;0.70;;;24.10;28.90;;;;;;5110988;28;20392;-57
2021/03/30 09:09:45;;;;;;;1.73;0.80;;;24.10;28.90;;;;;;5111293;28;20488;-57
2021/03/30 09:12:17;;;;;;;2.33;0.70;;;24.10;28.70;;;;;;5111306;28;20387;-57
2021/03/30 09:14:47;;;;;;;1.25;0.70;;;24.10;28.70;;;;;;5110054;28;20400;-57
2021/03/30 09:17:18;;;;;;;1.40;0.80;;;24.10;28.70;;;;;;5110799;28;21033;-57
2021/03/30 09:19:49;;;;;;;1.27;0.85;;;24.20;28.70;;;;;;5111472;28;20413;-57
2021/03/30 09:25:02;;;;;;;1.25;0.70;;;24.20;28.70;;;;;;5111470;28;20408;-58
2021/03/30 09:27:39;;;;;;;1.42;0.65;;;24.20;28.70;;;;;;5111147;28;20479;-57
2021/03/30 09:30:11;;;;;;;1.38;0.70;;;24.30;28.70;;;;;;5111154;28;20467;-58
2021/03/30 09:32:39;;;;;;;1.25;0.70;;;24.30;28.60;;;;;;5111268;28;20475;-59
2021/03/30 09:35:17;;;;;;;1.45;0.73;;;24.20;28.60;;;;;;5110883;28;20398;-59
2021/03/30 09:37:51;;;;;;;1.40;0.75;;;24.30;28.60;;;;;;5111207;28;20396;-57
2021/03/30 09:40:24;;;;;;;1.40;0.70;;;24.30;28.70;;;;;;5111185;28;20863;-59
2021/03/30 09:42:50;;;;;;;1.50;0.73;;;24.30;28.70;;;;;;5110195;28;20400;-58
2021/03/30 09:45:22;;;;;;;2.05;0.80;;;24.30;28.60;;;;;;5110758;28;20404;-58
2021/03/30 09:47:48;;;;;;;1.48;0.70;;;24.30;28.50;;;;;;5111053;28;20389;-57
2021/03/30 09:50:19;;;;;;;1.00;0.50;;;24.30;28.50;;;;;;5112754;28;20383;-57
2021/03/30 09:52:46;;;;;;;1.05;0.68;;;24.40;28.60;;;;;;5114137;28;20376;-59
2021/03/30 09:55:11;;;;;;;1.60;0.90;;;24.40;28.50;;;;;;5114197;28;20888;-57
2021/03/30 09:57:37;;;;;;;1.33;0.70;;;24.40;28.50;;;;;;5114846;28;20460;-59
2021/03/30 10:00:05;;;;;;;1.15;0.60;;;24.40;28.50;;;;;;5114391;28;20868;-57
2021/03/30 10:02:34;;;;;;;1.10;0.50;;;24.40;28.40;;;;;;5112080;27;20380;-58
2021/03/30 10:05:06;;;;;;;1.13;0.57;;;24.50;28.40;;;;;;5103684;28;20463;-58
2021/03/30 10:07:35;;;;;;;1.50;0.63;;;24.40;28.30;;;;;;5103073;28;20465;-57
2021/03/30 10:10:10;;;;;;;1.00;0.60;;;24.50;28.30;;;;;;5100340;28;20448;-59
2021/03/30 10:12:49;;;;;;;1.27;0.80;;;24.50;28.40;;;;;;5094822;28;20444;-61
2021/03/30 10:15:15;;;;;;;1.33;0.60;;;24.50;28.30;;;;;;5093302;28;20421;-58
2021/03/30 10:17:41;;;;;;;1.60;0.80;;;24.50;28.30;;;;;;5094169;28;20805;-59
2021/03/30 10:20:12;;;;;;;3.72;0.80;;;24.50;28.20;;;;;;5094388;28;20417;-58
2021/03/30 10:22:45;;;;;;;3.53;0.80;;;24.40;28.00;;;;;;5108386;28;20408;-58
2021/03/30 10:25:14;;;;;;;1.63;0.60;;;24.30;27.80;;;;;;5103343;28;20412;-58
2021/03/30 10:27:54;;;;;;;1.20;0.70;;;24.30;27.70;;;;;;5102690;28;20888;-59
2021/03/30 10:30:47;;;;;;;1.70;0.80;;;24.30;27.70;;;;;;5101331;28;20429;-57
2021/03/30 10:33:31;;;;;;;1.47;0.70;;;24.30;27.70;;;;;;5102718;28;20411;-57
2021/03/30 10:35:56;;;;;;;1.83;0.77;;;24.30;27.60;;;;;;5101842;28;20796;-58
2021/03/30 10:38:22;;;;;;;1.43;0.77;;;24.30;27.60;;;;;;5101869;28;20421;-58
2021/03/30 10:40:48;;;;;;;1.35;0.70;;;24.30;27.50;;;;;;5100246;28;20389;-57
2021/03/30 10:43:21;;;;;;;2.10;0.80;;;24.30;27.60;;;;;;5101841;28;20415;-57
2021/03/30 10:45:47;;;;;;;2.80;0.90;;;24.30;27.50;;;;;;5102361;28;20800;-60
2021/03/30 10:48:13;;;;;;;1.15;0.80;;;24.30;27.60;;;;;;5100904;28;20386;-60
2021/03/30 10:50:39;;;;;;;1.70;0.80;;;24.30;27.60;;;;;;5102530;28;20418;-60
2021/03/30 10:53:06;;;;;;;2.15;0.70;;;24.30;27.60;;;;;;5101835;28;20747;-57
2021/03/30 10:55:32;;;;;;;1.58;0.70;;;24.30;27.60;;;;;;5100862;27;20418;-58
2021/03/30 10:57:58;;;;;;;1.88;0.80;;;24.30;27.60;;;;;;5101077;28;20507;-58
2021/03/30 11:00:24;;;;;;;2.10;0.70;;;24.20;27.50;;;;;;5101690;28;20473;-60
2021/03/30 11:02:49;;;;;;;1.35;0.70;;;24.20;27.50;;;;;;5098978;28;20393;-58
2021/03/30 11:05:17;;;;;;;1.30;0.60;;;24.20;27.60;;;;;;5100189;28;20857;-58
2021/03/30 11:07:42;;;;;;;1.30;0.70;;;24.20;27.60;;;;;;5101804;28;20422;-59
2021/03/30 11:10:10;;;;;;;1.50;0.70;;;24.30;27.60;;;;;;5102242;28;20386;-57
2021/03/30 11:12:36;;;;;;;1.33;0.70;;;24.20;27.60;;;;;;5098849;28;20405;-57
2021/03/30 11:15:04;;;;;;;1.65;0.70;;;24.20;27.60;;;;;;5101492;28;20384;-57
2021/03/30 11:17:29;;;;;;;1.13;0.80;;;24.20;27.50;;;;;;5101986;28;20386;-58
2021/03/30 11:19:55;;;;;;;1.93;0.80;;;24.20;27.60;;;;;;5100289;28;20382;-58
2021/03/30 11:22:21;;;;;;;2.30;0.60;;;24.20;27.60;;;;;;5101650;28;20425;-57
2021/03/30 11:24:46;;;;;;;1.53;0.70;;;24.20;27.60;;;;;;5101692;28;20427;-57
2021/03/30 11:27:12;;;;;;;1.58;0.70;;;24.20;27.60;;;;;;5100200;28;20382;-58
2021/03/30 11:34:53;;;;;;;1.40;0.70;;;24.20;27.50;;;;;;5100319;28;20461;-57
2021/03/30 11:39:55;;;;;;;1.52;0.90;;;24.20;27.60;;;;;;5100252;28;20520;-57
2021/03/30 11:42:21;;;;;;;1.90;0.70;;;24.20;27.60;;;;;;5100828;28;20396;-57
2021/03/30 11:44:47;;;;;;;1.42;0.75;;;24.20;27.50;;;;;;5100465;28;20414;-58
2021/03/30 11:47:13;;;;;;;1.27;0.70;;;24.20;27.50;;;;;;5099260;28;20378;-57
2021/03/30 11:49:39;;;;;;;1.50;0.90;;;24.20;27.50;;;;;;5101397;28;20393;-57
2021/03/30 11:52:06;;;;;;;1.45;0.80;;;24.20;27.60;;;;;;5101037;28;20378;-57
2021/03/30 11:54:33;;;;;;;1.45;0.90;;;24.20;27.50;;;;;;5099716;28;20390;-57
2021/03/30 11:56:59;;;;;;;1.30;0.80;;;24.20;27.50;;;;;;5101142;28;20380;-57
2021/03/30 11:59:25;;;;;;;1.35;0.80;;;24.20;27.60;;;;;;5100528;28;20401;-57
2021/03/30 12:01:50;;;;;;;1.23;0.70;;;24.30;27.60;;;;;;5099606;28;20401;-58
2021/03/30 12:04:17;;;;;;;1.70;0.70;;;24.30;27.50;;;;;;5098289;28;20410;-57
2021/03/30 12:06:43;;;;;;;1.30;0.80;;;24.30;27.50;;;;;;5099269;28;20927;-57
2021/03/30 12:09:09;;;;;;;1.73;0.80;;;24.30;27.50;;;;;;5101178;28;20398;-57
2021/03/30 12:11:35;;;;;;;1.10;0.70;;;24.30;27.40;;;;;;5097733;28;20412;-57
2021/03/30 12:14:01;;;;;;;1.15;0.77;;;24.30;27.40;;;;;;5100629;28;20389;-57
2021/03/30 12:16:27;;;;;;;1.60;0.80;;;24.30;27.30;;;;;;5101084;28;20382;-57
2021/03/30 12:18:53;;;;;;;1.52;1.00;;;24.40;27.40;;;;;;5099268;28;20942;-57
2021/03/30 12:21:20;;;;;;;1.40;0.90;;;24.40;27.50;;;;;;5100492;28;20445;-57
2021/03/30 12:23:46;;;;;;;1.27;0.70;;;24.40;27.40;;;;;;5100516;28;20409;-57
2021/03/30 12:26:11;;;;;;;1.40;0.80;;;24.40;27.90;;;;;;5099110;28;20394;-57
2021/03/30 12:28:37;;;;;;;1.42;0.80;;;24.40;27.40;;;;;;5100736;28;20392;-57
2021/03/30 12:31:03;;;;;;;1.33;0.80;;;24.40;27.40;;;;;;5099750;28;20393;-58
2021/03/30 12:33:29;;;;;;;2.30;0.90;;;24.40;27.40;;;;;;5098827;28;20441;-57
2021/03/30 12:35:55;;;;;;;1.13;0.77;;;24.40;27.50;;;;;;5101476;28;20871;-57
2021/03/30 12:38:21;;;;;;;1.60;0.80;;;24.40;27.50;;;;;;5099639;28;20947;-57
2021/03/30 12:40:47;;;;;;;1.30;0.73;;;24.40;27.50;;;;;;5099635;28;20887;-57
2021/03/30 12:43:12;;;;;;;1.27;0.60;;;24.40;27.50;;;;;;5100119;28;20870;-58
2021/03/30 12:45:38;;;;;;;1.50;0.70;;;24.40;27.40;;;;;;5099140;28;20397;-58
2021/03/30 12:48:05;;;;;;;1.20;0.70;;;24.40;27.40;;;;;;5100030;28;20384;-58
2021/03/30 12:50:33;;;;;;;1.60;0.90;;;24.40;27.40;;;;;;5101054;28;20448;-57
2021/03/30 12:52:59;;;;;;;1.23;0.70;;;24.50;27.50;;;;;;5101660;28;20431;-57
2021/03/30 12:55:25;;;;;;;1.48;0.70;;;24.50;27.40;;;;;;5099609;28;20950;-57
2021/03/30 12:57:51;;;;;;;1.33;0.77;;;24.50;27.80;;;;;;5100857;28;20390;-58
2021/03/30 13:00:17;;;;;;;1.48;0.70;;;24.50;27.50;;;;;;5098472;28;20419;-57
2021/03/30 13:02:43;;;;;;;1.48;0.75;;;24.50;27.40;;;;;;5101806;28;20385;-58
2021/03/30 13:05:10;;;;;;;1.65;0.68;;;24.50;27.40;;;;;;5099026;28;20416;-58
2021/03/30 13:07:36;;;;;;;1.60;0.70;;;24.50;27.40;;;;;;5100421;28;20438;-58
2021/03/30 13:10:03;;;;;;;1.00;0.60;;;24.50;27.40;;;;;;5099728;28;20394;-57
2021/03/30 13:12:31;;;;;;;1.13;0.70;;;24.50;27.40;;;;;;5099028;28;20838;-57